Mosgiel, New Zealand
Current Conditions -  °F | °C
As of 5:30 PM on Thursday 27 Nov 2014 (Local Time) from NZCH Reporting Station
Clear Clear  
Wind Chill: 68°   Ceiling: Unl
Heat Index: 68°   Visibility: 6mi
Dew Point: 36°   Wind: 22mph
Humidity: 30%   Direction: 300°WNW
Pressure: 29.44"   Gusts: NA
Location:  45.88°S, 170.35°E
Report Text: NZCH 270530Z AUTO 30019KT 270V350 9999 NCD 20/02 Q0997 NOSIG
Loading
Personal Weather Stations






























Interactive Weather Map New forecast layout! Learn more

10-Day Weather Forecast

Advertisements
Track Severe Weather on mobile